createdAt,value
2019-04-04T00:01:02.076Z,10.43
2019-04-04T00:03:34.926Z,10.18
2019-04-04T00:06:07.048Z,10.75
2019-04-04T00:11:10.076Z,7.25
2019-04-04T00:13:42.623Z,10.25
2019-04-04T00:16:16.669Z,7.15
2019-04-04T00:18:48.645Z,8.60
2019-04-04T00:21:20.685Z,8.78
2019-04-04T00:23:52.597Z,8.18
2019-04-04T00:26:24.685Z,9.15
2019-04-04T00:28:56.786Z,8.63
2019-04-04T00:31:28.846Z,8.90
2019-04-04T00:34:00.876Z,8.23
2019-04-04T00:36:34.716Z,9.50
2019-04-04T00:39:09.482Z,8.68
2019-04-04T00:41:42.982Z,12.07
2019-04-04T00:44:15.835Z,11.15
2019-04-04T00:46:47.857Z,11.30
2019-04-04T00:49:20.792Z,9.53
2019-04-04T00:51:52.725Z,12.63
2019-04-04T00:54:24.771Z,10.85
2019-04-04T00:56:56.867Z,11.35
2019-04-04T00:59:28.846Z,10.80
2019-04-04T01:02:00.966Z,11.40
2019-04-04T01:04:33.016Z,11.18
2019-04-04T01:07:05.706Z,13.25
2019-04-04T01:09:37.696Z,11.20
2019-04-04T01:12:09.785Z,12.13
2019-04-04T01:14:41.734Z,11.68
2019-04-04T01:17:14.934Z,12.82
2019-04-04T01:22:19.754Z,21.80
2019-04-04T01:27:22.596Z,13.15
2019-04-04T01:29:54.516Z,10.95
2019-04-04T01:32:26.614Z,13.00
2019-04-04T01:34:58.705Z,10.90
2019-04-04T01:37:31.106Z,12.80
2019-04-04T01:40:03.806Z,10.78
2019-04-04T01:42:38.699Z,11.30
2019-04-04T01:45:12.884Z,10.32
2019-04-04T01:47:43.508Z,10.85
2019-04-04T01:50:15.443Z,8.85
2019-04-04T01:52:47.426Z,9.83
2019-04-04T01:55:19.446Z,11.75
2019-04-04T01:57:51.456Z,9.10
2019-04-04T02:00:23.524Z,9.68
2019-04-04T02:02:55.580Z,9.18
2019-04-04T02:05:27.652Z,11.83
2019-04-04T02:08:00.997Z,8.93
2019-04-04T02:10:34.847Z,13.53
2019-04-04T02:13:09.555Z,9.30
2019-04-04T02:15:40.967Z,12.35
2019-04-04T02:18:13.113Z,8.70
2019-04-04T02:20:48.750Z,12.75
2019-04-04T02:23:23.384Z,10.72
2019-04-04T02:25:55.264Z,12.20
2019-04-04T02:28:27.347Z,12.23
2019-04-04T02:30:59.644Z,11.78
2019-04-04T02:33:32.536Z,10.78
2019-04-04T02:36:05.375Z,13.28
2019-04-04T02:38:37.336Z,11.73
2019-04-04T02:41:09.247Z,14.03
2019-04-04T02:43:41.228Z,11.28
2019-04-04T02:46:13.173Z,13.85
2019-04-04T02:48:45.147Z,10.32
2019-04-04T02:51:17.396Z,13.22
2019-04-04T02:53:51.894Z,10.78
2019-04-04T02:56:22.846Z,12.78
2019-04-04T02:58:55.014Z,11.63
2019-04-04T03:01:26.964Z,13.45
2019-04-04T03:03:59.064Z,11.30
2019-04-04T03:06:31.205Z,10.48
2019-04-04T03:09:08.853Z,14.00
2019-04-04T03:11:38.586Z,10.10
2019-04-04T03:14:10.475Z,11.45
2019-04-04T03:16:42.614Z,9.23
2019-04-04T03:21:45.477Z,9.03
2019-04-04T03:24:17.456Z,11.75
2019-04-04T03:26:52.312Z,9.18
2019-04-04T03:29:23.017Z,12.33
2019-04-04T03:31:55.136Z,9.35
2019-04-04T03:34:27.195Z,11.30
2019-04-04T03:36:59.062Z,10.08
2019-04-04T03:39:31.067Z,10.95
2019-04-04T03:42:07.217Z,8.05
2019-04-04T03:44:36.943Z,11.20
2019-04-04T03:47:10.397Z,13.15
2019-04-04T03:49:42.555Z,13.55
2019-04-04T03:52:14.516Z,10.93
2019-04-04T03:54:46.539Z,11.70
2019-04-04T03:57:18.585Z,11.85
2019-04-04T03:59:50.634Z,12.90
2019-04-04T04:02:22.586Z,10.58
2019-04-04T04:04:54.550Z,13.43
2019-04-04T04:07:26.671Z,11.25
2019-04-04T04:09:59.657Z,11.00
2019-04-04T04:12:33.436Z,12.25
2019-04-04T04:15:05.634Z,10.50
2019-04-04T04:20:08.647Z,12.40
2019-04-04T04:22:40.632Z,12.35
2019-04-04T04:25:13.774Z,11.10
2019-04-04T04:27:48.454Z,13.38
2019-04-04T04:30:19.886Z,13.10
2019-04-04T04:35:24.318Z,10.70
2019-04-04T04:37:56.766Z,12.53
2019-04-04T04:40:28.717Z,13.28
2019-04-04T04:43:01.024Z,11.48
2019-04-04T04:48:03.852Z,12.85
2019-04-04T04:50:35.806Z,11.18
2019-04-04T04:53:08.041Z,10.50
2019-04-04T04:58:11.402Z,12.88
2019-04-04T05:00:45.180Z,8.98
2019-04-04T05:03:19.249Z,10.90
2019-04-04T05:05:51.195Z,11.03
2019-04-04T05:08:23.252Z,9.43
2019-04-04T05:10:55.296Z,13.95
2019-04-04T05:13:28.764Z,9.78
2019-04-04T05:16:05.227Z,9.70
2019-04-04T05:18:36.127Z,11.55
2019-04-04T05:21:08.241Z,10.30
2019-04-04T05:23:40.265Z,9.25
2019-04-04T05:26:12.217Z,8.08
2019-04-04T05:28:44.316Z,8.98
2019-04-04T05:31:18.169Z,8.50
2019-04-04T05:33:50.099Z,10.70
2019-04-04T05:36:30.514Z,10.15
2019-04-04T05:39:02.616Z,12.15
2019-04-04T05:41:37.225Z,11.05
2019-04-04T05:44:09.968Z,12.45
2019-04-04T05:46:42.006Z,11.22
2019-04-04T05:51:46.343Z,14.07
2019-04-04T05:54:18.465Z,9.55
2019-04-04T05:56:50.386Z,10.00
2019-04-04T05:59:25.276Z,8.60
2019-04-04T06:01:57.244Z,9.73
2019-04-04T06:04:29.174Z,10.38
2019-04-04T06:07:03.939Z,10.05
2019-04-04T06:09:34.905Z,11.57
2019-04-04T06:12:06.965Z,9.55
2019-04-04T06:14:39.016Z,9.80
2019-04-04T06:17:11.073Z,12.20
2019-04-04T06:19:44.657Z,9.73
2019-04-04T06:22:17.142Z,10.78
2019-04-04T06:24:52.004Z,9.53
2019-04-04T06:27:22.746Z,9.98
2019-04-04T06:29:54.826Z,8.95
2019-04-04T06:32:26.899Z,8.70
2019-04-04T06:34:58.844Z,8.53
2019-04-04T06:37:30.884Z,8.63
2019-04-04T06:40:02.846Z,8.23
2019-04-04T06:42:36.020Z,8.00
2019-04-04T06:45:08.694Z,7.40
2019-04-04T06:47:40.626Z,7.72
2019-04-04T06:50:12.876Z,7.22
2019-04-04T06:52:45.026Z,6.58
2019-04-04T06:55:16.896Z,6.92
2019-04-04T06:57:51.287Z,6.83
2019-04-04T07:00:22.806Z,7.53
2019-04-04T07:07:58.437Z,6.97
2019-04-04T07:10:30.434Z,7.72
2019-04-04T07:13:20.151Z,7.90
2019-04-04T07:15:46.199Z,10.95
2019-04-04T07:18:12.035Z,8.65
2019-04-04T07:20:43.653Z,10.72
2019-04-04T07:23:16.233Z,8.80
2019-04-04T07:25:48.293Z,9.20
2019-04-04T07:28:20.227Z,8.08
2019-04-04T07:30:54.607Z,10.25
2019-04-04T07:33:26.026Z,9.30
2019-04-04T07:35:58.023Z,9.80
2019-04-04T07:38:30.084Z,8.18
2019-04-04T07:41:03.108Z,8.10
2019-04-04T07:43:35.216Z,7.50
2019-04-04T07:46:16.350Z,6.67
2019-04-04T07:48:42.196Z,7.30
2019-04-04T07:51:14.273Z,8.18
2019-04-04T07:53:46.194Z,7.72
2019-04-04T07:56:18.266Z,7.45
2019-04-04T07:58:50.306Z,9.68
2019-04-04T08:01:22.177Z,11.83
2019-04-04T08:03:54.097Z,10.25
2019-04-04T08:06:26.114Z,9.03
2019-04-04T08:08:58.295Z,11.30
2019-04-04T08:11:30.244Z,17.80
2019-04-04T08:14:02.473Z,12.75
2019-04-04T08:16:34.445Z,12.05
2019-04-04T08:19:06.624Z,15.60
2019-04-04T08:21:38.716Z,12.65
2019-04-04T08:26:42.792Z,12.78
2019-04-04T08:29:14.756Z,13.43
2019-04-04T08:31:46.784Z,11.30
2019-04-04T08:34:19.146Z,15.43
2019-04-04T08:36:51.303Z,12.20
2019-04-04T08:39:24.616Z,22.70
2019-04-04T08:41:56.906Z,14.03
2019-04-04T08:46:59.934Z,14.70
2019-04-04T08:52:02.738Z,13.80
2019-04-04T08:54:36.468Z,17.25
2019-04-04T08:57:08.656Z,11.80
2019-04-04T08:59:41.386Z,21.45
2019-04-04T09:02:13.486Z,13.00
2019-04-04T09:04:46.835Z,12.47
2019-04-04T09:07:18.894Z,7.90
2019-04-04T09:09:51.181Z,7.50
2019-04-04T09:14:54.184Z,7.53
2019-04-04T09:17:26.414Z,7.97
2019-04-04T09:19:58.297Z,9.73
2019-04-04T09:22:30.449Z,7.80
2019-04-04T09:27:34.426Z,7.30
2019-04-04T09:30:07.197Z,8.00
2019-04-04T09:32:39.415Z,7.90
2019-04-04T09:35:11.486Z,7.80
2019-04-04T09:37:43.629Z,7.85
2019-04-04T09:40:15.736Z,7.92
2019-04-04T09:45:18.587Z,7.67
2019-04-04T09:47:51.544Z,7.75
2019-04-04T09:50:23.496Z,8.43
2019-04-04T09:52:55.714Z,8.23
2019-04-04T09:55:28.225Z,7.47
2019-04-04T09:58:01.654Z,8.48
2019-04-04T10:00:33.775Z,7.97
2019-04-04T10:05:37.427Z,7.67
2019-04-04T10:08:10.226Z,8.65
2019-04-04T10:13:13.421Z,11.03
2019-04-04T10:15:45.537Z,10.58
2019-04-04T10:20:48.396Z,9.33
2019-04-04T10:23:20.512Z,10.58
2019-04-04T10:25:52.710Z,12.70
2019-04-04T10:28:24.746Z,10.63
2019-04-04T10:30:56.698Z,10.68
2019-04-04T10:33:28.676Z,11.12
2019-04-04T10:36:00.666Z,11.20
2019-04-04T10:38:32.635Z,9.35
2019-04-04T10:41:04.677Z,7.62
2019-04-04T10:46:07.659Z,9.83
2019-04-04T10:48:39.655Z,11.05
2019-04-04T10:51:11.689Z,11.48
2019-04-04T10:53:43.696Z,11.63
2019-04-04T10:58:46.486Z,10.53
2019-04-04T11:01:18.996Z,9.58
2019-04-04T11:03:50.896Z,8.03
2019-04-04T11:06:22.878Z,7.60
2019-04-04T11:11:26.244Z,7.65
2019-04-04T11:13:59.077Z,7.15
2019-04-04T11:16:31.094Z,6.95
2019-04-04T11:21:34.205Z,7.90
2019-04-04T11:26:37.515Z,7.95
2019-04-04T11:29:09.556Z,7.37
2019-04-04T11:31:42.135Z,7.25
2019-04-04T11:34:14.051Z,7.42
2019-04-04T11:39:18.304Z,9.18
2019-04-04T11:41:50.254Z,10.10
2019-04-04T11:44:22.244Z,8.85
2019-04-04T11:46:54.176Z,7.50
2019-04-04T11:51:57.033Z,7.28
2019-04-04T11:56:59.805Z,8.25
2019-04-04T11:59:31.816Z,8.33
2019-04-04T12:02:04.463Z,9.75
2019-04-04T12:04:36.486Z,8.13
2019-04-04T12:09:39.276Z,7.75
2019-04-04T12:12:11.697Z,7.92
2019-04-04T12:17:14.705Z,7.90
2019-04-04T12:19:46.815Z,8.43
2019-04-04T12:22:18.905Z,8.63
2019-04-04T12:24:51.178Z,8.25
2019-04-04T12:27:23.437Z,7.83
2019-04-04T12:29:55.406Z,7.08
2019-04-04T12:32:27.386Z,7.53
2019-04-04T12:34:59.523Z,7.08
2019-04-04T12:40:02.246Z,7.62
2019-04-04T12:42:35.497Z,7.47
2019-04-04T12:45:08.034Z,7.78
2019-04-04T12:47:40.097Z,9.75
2019-04-04T12:50:12.443Z,8.20
2019-04-04T12:52:44.659Z,8.40
2019-04-04T12:55:17.770Z,8.38
2019-04-04T12:57:51.147Z,8.48
2019-04-04T13:00:26.218Z,8.53
2019-04-04T13:02:58.068Z,8.55
2019-04-04T13:05:30.066Z,8.35
2019-04-04T13:10:33.668Z,7.80
2019-04-04T13:13:06.146Z,8.05
2019-04-04T13:15:38.237Z,8.48
2019-04-04T13:18:10.136Z,7.83
2019-04-04T13:23:14.063Z,8.13
2019-04-04T13:28:18.104Z,8.30
2019-04-04T13:30:50.346Z,8.78
2019-04-04T13:33:22.629Z,8.38
2019-04-04T13:35:54.646Z,8.13
2019-04-04T13:40:58.300Z,8.80
2019-04-04T13:43:30.519Z,8.68
2019-04-04T13:46:02.936Z,8.25
2019-04-04T13:51:06.274Z,9.08
2019-04-04T13:53:41.197Z,8.30
2019-04-04T13:56:12.284Z,8.03
2019-04-04T13:58:47.322Z,7.70
2019-04-04T14:01:18.077Z,8.75
2019-04-04T14:03:50.346Z,8.50
2019-04-04T14:06:22.697Z,8.40
2019-04-04T14:08:55.014Z,7.95
2019-04-04T14:11:27.434Z,9.25
2019-04-04T14:13:59.676Z,8.35
2019-04-04T14:16:31.733Z,7.87
2019-04-04T14:19:03.965Z,8.45
2019-04-04T14:21:36.235Z,9.15
2019-04-04T14:24:13.798Z,8.50
2019-04-04T14:26:42.064Z,8.13
2019-04-04T14:29:26.740Z,8.70
2019-04-04T14:31:48.165Z,8.33
2019-04-04T14:34:20.115Z,8.30
2019-04-04T14:36:54.006Z,8.45
2019-04-04T14:39:26.150Z,8.20
2019-04-04T14:44:30.191Z,8.08
2019-04-04T14:47:03.446Z,8.70
2019-04-04T14:49:36.746Z,9.15
2019-04-04T14:54:39.835Z,8.70
2019-04-04T14:57:11.766Z,8.08
2019-04-04T14:59:43.766Z,8.68
2019-04-04T15:04:46.566Z,8.55
2019-04-04T15:09:49.384Z,8.60
2019-04-04T15:12:21.234Z,7.78
2019-04-04T15:14:53.174Z,8.15
2019-04-04T15:17:25.254Z,8.30
2019-04-04T15:22:31.826Z,7.72
2019-04-04T15:25:02.676Z,7.80
2019-04-04T15:27:34.668Z,7.95
2019-04-04T15:32:40.607Z,10.05
2019-04-04T15:35:12.695Z,9.43
2019-04-04T15:40:15.458Z,8.45
2019-04-04T15:45:18.306Z,8.60
2019-04-04T15:50:20.916Z,8.50
2019-04-04T15:52:52.844Z,8.53
2019-04-04T15:55:24.887Z,7.70
2019-04-04T15:57:57.436Z,8.98
2019-04-04T16:00:29.565Z,7.92
2019-04-04T16:03:01.572Z,8.93
2019-04-04T16:08:04.566Z,10.72
2019-04-04T16:10:36.537Z,12.98
2019-04-04T16:13:08.457Z,11.90
2019-04-04T16:15:40.546Z,12.78
2019-04-04T16:18:12.616Z,10.45
2019-04-04T16:20:44.616Z,12.60
2019-04-04T16:23:16.536Z,11.88
2019-04-04T16:25:48.477Z,13.35
2019-04-04T16:28:20.508Z,11.25
2019-04-04T16:30:52.576Z,13.20
2019-04-04T16:33:26.516Z,12.10
2019-04-04T16:35:58.556Z,11.55
2019-04-04T16:38:30.486Z,12.65
2019-04-04T16:41:02.536Z,12.23
2019-04-04T16:43:35.627Z,11.88
2019-04-04T16:46:07.676Z,9.20
2019-04-04T16:48:39.616Z,13.03
2019-04-04T16:51:11.746Z,11.68
2019-04-04T16:53:43.815Z,14.15
2019-04-04T16:58:46.786Z,10.35
2019-04-04T17:01:18.748Z,11.53
2019-04-04T17:04:00.999Z,10.90
2019-04-04T17:06:24.901Z,10.18
2019-04-04T17:11:27.590Z,13.48
2019-04-04T17:14:00.692Z,11.22
2019-04-04T17:19:05.906Z,19.52
2019-04-04T17:21:39.175Z,16.70
2019-04-04T17:24:15.556Z,15.60
2019-04-04T17:26:47.651Z,13.88
2019-04-04T17:29:19.665Z,20.97
2019-04-04T17:31:51.917Z,14.98
2019-04-04T17:36:55.158Z,20.08
2019-04-04T17:39:30.030Z,16.75
2019-04-04T17:42:02.516Z,15.40
2019-04-04T17:44:34.465Z,14.60
2019-04-04T17:47:06.720Z,14.73
2019-04-04T17:52:10.117Z,13.65
2019-04-04T17:54:43.146Z,13.95
2019-04-04T17:57:15.497Z,19.45
2019-04-04T17:59:47.626Z,14.00
2019-04-04T18:02:20.336Z,18.60
2019-04-04T18:04:55.821Z,23.20
2019-04-04T18:07:30.966Z,14.23
2019-04-04T18:10:05.224Z,13.85
2019-04-04T18:12:41.085Z,70.30
2019-04-04T18:15:14.442Z,36.10
2019-04-04T18:20:17.860Z,20.20
2019-04-04T18:22:57.936Z,22.73
2019-04-04T18:25:32.226Z,46.37
2019-04-04T18:28:04.166Z,19.92
2019-04-04T18:30:36.366Z,21.37
2019-04-04T18:33:09.355Z,14.05
2019-04-04T19:12:35.181Z,13.03
2019-04-04T19:15:08.450Z,15.93
2019-04-04T19:17:44.403Z,15.43
2019-04-04T19:20:17.250Z,14.18
2019-04-04T19:22:49.889Z,17.45
2019-04-04T19:25:22.539Z,16.05
2019-04-04T19:27:54.910Z,16.07
2019-04-04T19:30:27.410Z,17.92
2019-04-04T19:32:59.992Z,14.95
2019-04-04T19:39:07.197Z,15.18
2019-04-04T19:41:40.108Z,16.07
2019-04-04T19:44:12.713Z,16.20
2019-04-04T19:46:45.127Z,14.63
2019-04-04T19:49:17.652Z,17.15
2019-04-04T19:51:50.128Z,16.73
2019-04-04T19:54:22.648Z,15.83
2019-04-04T19:56:55.117Z,16.87
2019-04-04T19:59:27.597Z,16.35
2019-04-04T20:02:00.060Z,19.02
2019-04-04T20:04:33.147Z,16.20
2019-04-04T20:07:06.028Z,15.18
2019-04-04T20:09:38.587Z,16.62
2019-04-04T20:12:11.326Z,17.32
2019-04-04T20:14:43.898Z,16.93
2019-04-04T20:17:16.418Z,17.17
2019-04-04T20:19:48.819Z,16.50
2019-04-04T20:22:21.399Z,17.87
2019-04-04T20:24:53.747Z,18.07
2019-04-04T20:27:26.257Z,17.32
2019-04-04T20:29:58.571Z,16.00
2019-04-04T20:32:31.218Z,17.42
2019-04-04T20:35:03.648Z,14.38
2019-04-04T20:37:36.049Z,13.62
2019-04-04T20:40:08.962Z,14.50
2019-04-04T20:42:41.809Z,14.25
2019-04-04T20:45:14.198Z,13.85
2019-04-04T20:47:47.407Z,14.20
2019-04-04T20:50:19.838Z,15.95
2019-04-04T20:52:52.305Z,14.38
2019-04-04T20:55:25.191Z,16.30
2019-04-04T20:57:56.917Z,14.38
2019-04-04T21:00:28.962Z,15.23
2019-04-04T21:03:01.104Z,16.55
2019-04-04T21:05:33.102Z,21.65
2019-04-04T21:08:05.308Z,17.85
2019-04-04T21:10:37.459Z,16.12
2019-04-04T21:15:40.292Z,19.02
2019-04-04T21:18:14.000Z,15.30
2019-04-04T21:20:45.902Z,17.10
2019-04-04T21:23:17.834Z,16.65
2019-04-04T21:25:49.983Z,20.65
2019-04-04T21:28:22.040Z,17.48
2019-04-04T21:30:54.242Z,19.12
2019-04-04T21:35:57.122Z,20.23
2019-04-04T21:38:29.145Z,16.50
2019-04-04T21:41:01.222Z,24.43
2019-04-04T21:43:33.199Z,20.30
2019-04-04T21:46:05.472Z,18.85
2019-04-04T21:51:09.413Z,21.55
2019-04-04T21:56:12.162Z,21.10
2019-04-04T21:58:44.162Z,18.12
2019-04-04T22:01:16.522Z,17.35
2019-04-04T22:03:49.962Z,15.48
2019-04-04T22:06:22.002Z,14.85
2019-04-04T22:08:54.002Z,16.95
2019-04-04T22:11:25.982Z,14.85
2019-04-04T22:13:58.002Z,14.47
2019-04-04T22:16:30.172Z,14.90
2019-04-04T22:19:02.184Z,18.23
2019-04-04T22:21:34.121Z,17.37
2019-04-04T22:24:06.192Z,17.65
2019-04-04T22:26:38.197Z,17.02
2019-04-04T22:29:10.163Z,15.43
2019-04-04T22:31:42.182Z,18.73
2019-04-04T22:34:14.315Z,14.43
2019-04-04T22:36:46.241Z,20.68
2019-04-04T22:39:18.182Z,16.48
2019-04-04T22:41:50.162Z,18.23
2019-04-04T22:44:34.127Z,17.37
2019-04-04T22:46:55.882Z,18.50
2019-04-04T22:49:28.036Z,17.20
2019-04-04T22:52:00.072Z,19.05
2019-04-04T22:54:32.012Z,16.52
2019-04-04T22:57:04.033Z,16.15
2019-04-04T22:59:36.052Z,15.18
2019-04-04T23:02:08.302Z,15.38
2019-04-04T23:04:40.250Z,15.65
2019-04-04T23:07:12.392Z,12.45
2019-04-04T23:12:15.416Z,15.20
2019-04-04T23:19:51.453Z,16.57
2019-04-04T23:24:55.136Z,20.37
2019-04-04T23:27:28.183Z,14.63
2019-04-04T23:30:00.342Z,15.78
2019-04-04T23:35:03.322Z,18.35
2019-04-04T23:40:06.731Z,16.70
2019-04-04T23:42:39.012Z,16.55
2019-04-04T23:45:11.573Z,16.87
2019-04-04T23:47:43.760Z,16.07
2019-04-04T23:50:17.042Z,17.90
2019-04-04T23:52:49.303Z,16.57
2019-04-04T23:55:21.320Z,18.50
2019-04-04T23:57:53.434Z,16.50
